Flight Track Log - Related Links

Times and Time Zones

All times are in EDT time to prevent confusion due to time zone crossing. See the SWA580 flight status page for this flight to view local times or setup timezone preferences in your user account.


Time Position Orientation Groundspeed Altitude Reporting Facility
EDT Latitude Longitude Course Direction KTS MPH feet Rate Location/Type
Mon 12:38:40 PM 39.8000 -104.6500 117° Southeast 187 215 6,800  Level Denver TRACON
Mon 12:39:40 PM 39.7667 -104.5667 117° Southeast 284 327 8,400 1,957 Climbing Denver TRACON
Mon 12:40:12 PM 39.7669 -104.5192 90° East 294 338 9,800 1,979 Climbing Denver Center
Mon 12:41:14 PM 39.7633 -104.3908 92° East 336 387 11,500 2,274 Climbing Denver Center
Mon 12:42:16 PM 39.7592 -104.2572 92° East 372 428 14,500 3,290 Climbing Denver Center
Mon 12:43:18 PM 39.7542 -104.1103 92° East 377 434 18,300 3,000 Climbing Denver Center
Mon 12:44:20 PM 39.7497 -103.9672 92° East 395 455 20,700 2,323 Climbing Denver Center
Mon 12:45:22 PM 39.7439 -103.8042 93° East 420 483 23,100 2,081 Climbing Denver Center
Mon 12:46:24 PM 39.7353 -103.6611 94° East 420 483 25,000 1,887 Climbing Denver Center
Mon 12:47:26 PM 39.7222 -103.4975 96° East 446 513 27,000 2,032 Climbing Denver Center
Mon 12:48:28 PM 39.7081 -103.3014 95° East 464 534 29,200 1,935 Climbing Denver Center
Mon 12:49:30 PM 39.6919 -103.1317 97° East 469 540 31,000 1,887 Climbing Denver Center
Mon 12:50:32 PM 39.6783 -102.9617 96° East 468 539 33,100 1,824 Climbing Denver Center
Mon 12:51:35 PM 39.6644 -102.7953 96° East 462 532 34,800 1,488 Climbing Denver Center
Mon 12:52:37 PM 39.6492 -102.6214 96° East 459 528 36,200 1,113 Climbing Denver Center
Mon 12:53:39 PM 39.6350 -102.4636 97° East 461 531 37,100 871 Climbing Denver Center
Mon 12:54:41 PM 39.6178 -102.2761 97° East 469 540 38,000 919 Climbing Denver Center
Mon 12:55:43 PM 39.6039 -102.1164 96° East 467 537 39,000 484 Climbing Denver Center
Mon 12:56:45 PM 39.5869 -101.9308 97° East 466 536 39,000  Level Denver Center
Mon 12:57:47 PM 39.5756 -101.7767 95° East 456 525 39,000  Level Denver Center
Mon 12:58:49 PM 39.5608 -101.5942 96° East 457 526 39,000  Level Denver Center
Mon 12:59:51 PM 39.5478 -101.4383 96° East 458 527 39,000  Level Denver Center
Mon 01:00:53 PM 39.5228 -101.2589 100° East 459 528 39,000  Level Denver Center
Mon 01:01:55 PM 39.5003 -101.1036 101° East 460 529 39,000  Level Denver Center
Mon 01:02:57 PM 39.4725 -100.9206 101° East 464 534 39,000  Level Denver Center
Mon 01:03:59 PM 39.4492 -100.7642 101° East 465 535 39,000  Level Denver Center
Mon 01:05:01 PM 39.4208 -100.5800 101° East 468 539 39,000  Level Denver Center
Mon 01:06:03 PM 39.3964 -100.4200 101° East 473 544 39,000  Level Denver Center
Mon 01:07:05 PM 39.3672 -100.2367 102° East 469 540 39,000  Level Denver Center
Mon 01:08:07 PM 39.3425 -100.0794 101° East 468 539 39,000  Level Denver Center
Mon 01:09:09 PM 39.3136 -99.8933 101° East 471 542 39,000  Level Denver Center
Mon 01:10:11 PM 39.2869 -99.7347 102° East 473 544 39,000  Level Denver Center
Mon 01:11:13 PM 39.2628 -99.5781 101° East 468 539 39,000  Level Denver Center
Mon 01:12:15 PM 39.2328 -99.3969 102° East 466 536 39,000  Level Denver Center
Mon 01:13:17 PM 39.2075 -99.2417 102° East 465 535 39,000  Level Denver Center
Mon 01:14:19 PM 39.1756 -99.0606 103° East 463 533 39,000  Level Denver Center
Mon 01:15:21 PM 39.1475 -98.8878 102° East 470 541 39,000  Level Denver Center
Mon 01:16:24 PM 39.1200 -98.7261 102° East 467 537 39,000  Level Denver Center
Mon 01:17:05 PM 39.1003 -98.6125 103° East 467 537 39,000  Level Kansas City Center
Mon 01:18:07 PM 39.0714 -98.4494 103° East 467 537 39,000  Level Kansas City Center
Mon 01:19:09 PM 39.0439 -98.2861 102° East 465 535 39,000  Level Kansas City Center
Mon 01:20:11 PM 39.0150 -98.1244 103° East 463 533 39,000  Level Kansas City Center
Mon 01:21:13 PM 38.9867 -97.9639 103° East 461 531 39,000  Level Kansas City Center
Mon 01:22:15 PM 38.9517 -97.7664 103° East 460 529 39,000  Level Kansas City Center
Mon 01:23:17 PM 38.9239 -97.6128 103° East 459 528 39,000  Level Kansas City Center
Mon 01:24:19 PM 38.8917 -97.4481 104° East 466 536 39,000  Level Kansas City Center
Mon 01:25:21 PM 38.8600 -97.2878 104° East 463 533 39,000  Level Kansas City Center
Mon 01:26:23 PM 38.8289 -97.1267 104° East 464 534 39,000  Level Kansas City Center
Mon 01:27:25 PM 38.7969 -96.9658 104° East 465 535 39,000  Level Kansas City Center
Mon 01:28:28 PM 38.7644 -96.8050 104° East 465 535 39,000  Level Kansas City Center
Mon 01:29:30 PM 38.7244 -96.6111 105° East 468 539 39,000  Level Kansas City Center
Mon 01:30:32 PM 38.6947 -96.4617 104° East 465 535 39,000  Level Kansas City Center
Mon 01:31:34 PM 38.6567 -96.2819 105° East 470 541 39,000  Level Kansas City Center
Mon 01:32:36 PM 38.6258 -96.1289 104° East 466 536 39,000  Level Kansas City Center
Mon 01:33:38 PM 38.5881 -95.9489 105° East 470 541 39,000  Level Kansas City Center
Mon 01:34:40 PM 38.5564 -95.7961 105° East 469 540 39,000  Level Kansas City Center
Mon 01:35:42 PM 38.5189 -95.6192 105° East 465 535 39,000  Level Kansas City Center
Mon 01:36:44 PM 38.4861 -95.4678 105° East 465 535 39,000  Level Kansas City Center
Mon 01:37:46 PM 38.4481 -95.2906 105° East 465 535 39,000  Level Kansas City Center
Mon 01:38:48 PM 38.4156 -95.1386 105° East 465 535 39,000  Level Kansas City Center
Mon 01:39:50 PM 38.3767 -94.9631 106° East 465 535 39,000  Level Kansas City Center
Mon 01:40:52 PM 38.3442 -94.8119 105° East 463 533 39,000  Level Kansas City Center
Mon 01:41:54 PM 38.3047 -94.6378 106° East 461 531 39,000  Level Kansas City Center
Mon 01:42:56 PM 38.2719 -94.4853 105° East 465 535 39,000  Level Kansas City Center
Mon 01:43:58 PM 38.2497 -94.3064 99° East 460 529 39,000  Level Kansas City Center
Mon 01:45:00 PM 38.2319 -94.1486 98° East 465 535 39,000  Level Kansas City Center
Mon 01:46:02 PM 38.2103 -93.9856 100° East 462 532 39,000  Level Kansas City Center
Mon 01:47:04 PM 38.1892 -93.8236 99° East 463 533 39,000  Level Kansas City Center
Mon 01:48:06 PM 38.1686 -93.6614 99° East 464 534 39,000  Level Kansas City Center
Mon 01:49:08 PM 38.1436 -93.4689 99° East 462 532 39,000  Level Kansas City Center
Mon 01:50:10 PM 38.1206 -93.3078 100° East 462 532 39,000  Level Kansas City Center
Mon 01:51:12 PM 38.1014 -93.1461 99° East 463 533 39,000  Level Kansas City Center
Mon 01:52:14 PM 38.0794 -92.9856 100° East 461 531 39,000  Level Kansas City Center
Mon 01:53:16 PM 38.0575 -92.8250 100° East 462 532 39,000  Level Kansas City Center
Mon 01:54:18 PM 38.0372 -92.6669 99° East 462 532 39,000  Level Kansas City Center
Mon 01:55:20 PM 38.0139 -92.5083 101° East 462 532 39,000  Level Kansas City Center
Mon 01:56:22 PM 37.9867 -92.3194 100° East 458 527 39,000  Level Kansas City Center
Mon 01:57:24 PM 37.9653 -92.1633 100° East 456 525 39,000  Level Kansas City Center
Mon 01:58:26 PM 37.9439 -92.0175 100° East 453 521 39,000  Level Kansas City Center
Mon 01:59:28 PM 37.9158 -91.8281 101° East 454 522 39,000  Level Kansas City Center
Mon 02:00:31 PM 37.8939 -91.6689 100° East 458 527 39,000  Level Kansas City Center
Mon 02:01:33 PM 37.8708 -91.5092 100° East 460 529 39,000  Level Kansas City Center
Mon 02:02:35 PM 37.8458 -91.3506 101° East 459 528 39,000  Level Kansas City Center
Mon 02:03:37 PM 37.8228 -91.1919 100° East 458 527 39,000  Level Kansas City Center
Mon 02:04:39 PM 37.7981 -91.0319 101° East 456 525 39,000  Level Kansas City Center
Mon 02:05:41 PM 37.7739 -90.8747 101° East 456 525 39,000  Level Kansas City Center
Mon 02:06:43 PM 37.7492 -90.7189 101° East 455 524 39,000 -242 Level Kansas City Center
Mon 02:07:45 PM 37.7189 -90.5281 101° East 460 529 38,500 -677 Descending Kansas City Center
Mon 02:08:47 PM 37.6950 -90.3714 101° East 460 529 37,600 -919 Descending Kansas City Center
Mon 02:09:49 PM 37.6700 -90.2153 101° East 459 528 36,600 -919 Descending Kansas City Center
Mon 02:10:51 PM 37.6422 -90.0592 103° East 459 528 35,700 -919 Descending Kansas City Center
Mon 02:11:53 PM 37.6133 -89.9039 103° East 459 528 34,700 -1,065 Descending Kansas City Center
Mon 02:12:55 PM 37.5772 -89.7058 103° East 467 537 33,500 -823 Descending Kansas City Center
Mon 02:13:57 PM 37.5492 -89.5439 102° East 471 542 33,000 -242 Descending Kansas City Center
Mon 02:14:59 PM 37.5186 -89.3833 103° East 471 542 33,000  Level Kansas City Center
Mon 02:16:01 PM 37.4894 -89.2247 103° East 467 537 33,000  Level Kansas City Center
Mon 02:17:03 PM 37.4583 -89.0644 104° East 468 539 33,000  Level Kansas City Center
Mon 02:17:33 PM 37.4428 -88.9750 102° East 468 539 33,000  Level Memphis Center
Mon 02:18:33 PM 37.4119 -88.8217 104° East 468 539 33,000  Level Memphis Center
Mon 02:19:33 PM 37.3828 -88.6603 103° East 468 539 33,000 -300 Level Memphis Center
Mon 02:20:33 PM 37.3533 -88.4992 103° East 468 539 32,400 -800 Descending Memphis Center
Mon 02:21:33 PM 37.3217 -88.3408 104° East 468 539 31,400 -1,000 Descending Memphis Center
Mon 02:22:33 PM 37.2919 -88.1825 103° East 468 539 30,400 -1,000 Descending Memphis Center
Mon 02:23:33 PM 37.2578 -88.0219 105° East 468 539 29,400 -1,000 Descending Memphis Center
Mon 02:24:33 PM 37.2194 -87.8667 107° East 468 539 28,400 -1,000 Descending Memphis Center
Mon 02:25:33 PM 37.1522 -87.7361 123° Southeast 447 514 27,400 -900 Descending Memphis Center
Mon 02:26:33 PM 37.0933 -87.6211 123° Southeast 447 514 26,600 -1,250 Descending Memphis Center
Mon 02:27:33 PM 37.0281 -87.4961 123° Southeast 442 509 24,900 -2,124 Descending Memphis Center
Mon 02:28:26 PM 36.9650 -87.3839 125° Southeast 416 479 22,600 -2,250 Descending Memphis Center
Mon 02:29:33 PM 36.9014 -87.2567 122° Southeast 410 472 20,400 -2,031 Descending Memphis Center
Mon 02:30:33 PM 36.8422 -87.1450 123° Southeast 398 458 18,300 -2,100 Descending Memphis Center
Mon 02:31:33 PM 36.7589 -87.0653 143° Southeast 371 427 16,200 -2,100 Descending Memphis Center
Mon 02:32:33 PM 36.6614 -87.0019 152° Southeast 371 427 14,100 -2,100 Descending Memphis Center
Mon 02:33:33 PM 36.5725 -86.9489 154° Southeast 360 414 12,000 -1,950 Descending Memphis Center
Mon 02:34:33 PM 36.4875 -86.8958 153° Southeast 344 396 10,200 -1,300 Descending Memphis Center
Mon 02:35:33 PM 36.4092 -86.8500 155° Southeast 325 374 9,400 -1,050 Descending Memphis Center
Mon 02:36:33 PM 36.3411 -86.8067 153° Southeast 309 356 8,100 -1,400 Descending Memphis Center
Mon 02:37:33 PM 36.2669 -86.7636 155° Southeast 297 342 6,600 -1,300 Descending Memphis Center
Mon 02:38:33 PM 36.1942 -86.7667 182° South 276 318 5,500 -800 Descending Memphis Center
Mon 02:39:33 PM 36.1261 -86.7903 196° South 262 302 5,000 -850 Descending Memphis Center
Mon 02:40:33 PM 36.0600 -86.8189 199° South 239 275 3,800 -1,050 Descending Memphis Center
Mon 02:41:33 PM 36.0294 -86.7689 127° Southeast 158 182 2,900 -1,050 Descending Memphis Center
Mon 02:42:33 PM 36.0506 -86.7089 66° East 123 142 1,700 -1,050 Descending Memphis Center
Mon 02:43:33 PM 36.0919 -86.6917 19° North 107 123 800 -500 Descending Memphis Center
Mon 02:44:33 PM 36.1097 -86.6653 50° Northeast 113 130 700 -100 Descending Memphis Center

Login

Don't have an account? Register now (free) for customized features, flight alerts, and more!